sensor_id;sensor_type;location;lat;lon;timestamp;P1;durP1;ratioP1;P2;durP2;ratioP2
67278;SDS011;54193;53.746;10.058;2022-08-19T00:01:56;37.75;;;19.00;;
67278;SDS011;54193;53.746;10.058;2022-08-19T00:04:42;38.28;;;17.80;;
67278;SDS011;54193;53.746;10.058;2022-08-19T00:07:28;40.00;;;18.92;;
67278;SDS011;54193;53.746;10.058;2022-08-19T00:10:14;41.92;;;20.48;;
67278;SDS011;54193;53.746;10.058;2022-08-19T00:13:00;40.70;;;18.93;;
67278;SDS011;54193;53.746;10.058;2022-08-19T00:15:46;44.42;;;20.65;;
67278;SDS011;54193;53.746;10.058;2022-08-19T00:18:32;41.35;;;19.20;;
67278;SDS011;54193;53.746;10.058;2022-08-19T00:21:18;41.58;;;18.83;;
67278;SDS011;54193;53.746;10.058;2022-08-19T00:24:05;42.00;;;20.23;;
67278;SDS011;54193;53.746;10.058;2022-08-19T00:26:52;43.10;;;19.57;;
67278;SDS011;54193;53.746;10.058;2022-08-19T00:29:38;45.88;;;19.30;;
67278;SDS011;54193;53.746;10.058;2022-08-19T00:32:24;42.78;;;19.60;;
67278;SDS011;54193;53.746;10.058;2022-08-19T00:35:10;45.60;;;19.88;;
67278;SDS011;54193;53.746;10.058;2022-08-19T00:37:56;45.47;;;20.25;;
67278;SDS011;54193;53.746;10.058;2022-08-19T00:40:42;43.33;;;20.53;;
67278;SDS011;54193;53.746;10.058;2022-08-19T00:43:31;42.28;;;20.50;;
67278;SDS011;54193;53.746;10.058;2022-08-19T00:46:17;48.15;;;20.90;;
67278;SDS011;54193;53.746;10.058;2022-08-19T00:49:06;44.35;;;20.25;;
67278;SDS011;54193;53.746;10.058;2022-08-19T00:52:00;44.85;;;19.50;;
67278;SDS011;54193;53.746;10.058;2022-08-19T00:54:50;44.97;;;19.57;;
67278;SDS011;54193;53.746;10.058;2022-08-19T00:57:38;46.15;;;23.02;;
67278;SDS011;54193;53.746;10.058;2022-08-19T01:00:27;46.42;;;21.02;;
67278;SDS011;54193;53.746;10.058;2022-08-19T01:03:15;45.45;;;20.95;;
67278;SDS011;54193;53.746;10.058;2022-08-19T01:06:02;43.45;;;19.88;;
67278;SDS011;54193;53.746;10.058;2022-08-19T01:08:48;46.37;;;20.60;;
67278;SDS011;54193;53.746;10.058;2022-08-19T01:11:35;47.45;;;20.17;;
67278;SDS011;54193;53.746;10.058;2022-08-19T01:14:24;49.67;;;19.65;;
67278;SDS011;54193;53.746;10.058;2022-08-19T01:17:11;40.70;;;17.52;;
67278;SDS011;54193;53.746;10.058;2022-08-19T01:19:57;44.28;;;18.85;;
67278;SDS011;54193;53.746;10.058;2022-08-19T01:22:44;44.63;;;19.20;;
67278;SDS011;54193;53.746;10.058;2022-08-19T01:25:51;47.15;;;18.77;;
67278;SDS011;54193;53.746;10.058;2022-08-19T01:28:37;46.13;;;19.58;;
67278;SDS011;54193;53.746;10.058;2022-08-19T01:31:25;42.88;;;18.75;;
67278;SDS011;54193;53.746;10.058;2022-08-19T01:34:12;43.53;;;18.90;;
67278;SDS011;54193;53.746;10.058;2022-08-19T01:36:57;42.13;;;18.20;;
67278;SDS011;54193;53.746;10.058;2022-08-19T01:39:43;42.15;;;17.58;;
67278;SDS011;54193;53.746;10.058;2022-08-19T01:42:29;44.75;;;18.05;;
67278;SDS011;54193;53.746;10.058;2022-08-19T01:45:17;42.78;;;18.15;;
67278;SDS011;54193;53.746;10.058;2022-08-19T01:48:04;47.92;;;19.27;;
67278;SDS011;54193;53.746;10.058;2022-08-19T01:50:50;46.27;;;18.27;;
67278;SDS011;54193;53.746;10.058;2022-08-19T01:53:36;50.30;;;21.30;;
67278;SDS011;54193;53.746;10.058;2022-08-19T01:56:22;39.28;;;17.55;;
67278;SDS011;54193;53.746;10.058;2022-08-19T01:59:10;48.83;;;18.42;;
67278;SDS011;54193;53.746;10.058;2022-08-19T02:02:03;49.63;;;18.65;;
67278;SDS011;54193;53.746;10.058;2022-08-19T02:04:52;53.03;;;18.63;;
67278;SDS011;54193;53.746;10.058;2022-08-19T02:07:39;49.67;;;19.23;;
67278;SDS011;54193;53.746;10.058;2022-08-19T02:10:25;49.22;;;18.02;;
67278;SDS011;54193;53.746;10.058;2022-08-19T02:13:11;45.90;;;18.10;;
67278;SDS011;54193;53.746;10.058;2022-08-19T02:15:58;44.53;;;18.00;;
67278;SDS011;54193;53.746;10.058;2022-08-19T02:18:44;45.23;;;16.90;;
67278;SDS011;54193;53.746;10.058;2022-08-19T02:21:32;50.28;;;19.33;;
67278;SDS011;54193;53.746;10.058;2022-08-19T02:24:18;46.33;;;18.55;;
67278;SDS011;54193;53.746;10.058;2022-08-19T02:27:04;48.53;;;17.88;;
67278;SDS011;54193;53.746;10.058;2022-08-19T02:29:51;52.35;;;19.27;;
67278;SDS011;54193;53.746;10.058;2022-08-19T02:32:37;53.07;;;19.13;;
67278;SDS011;54193;53.746;10.058;2022-08-19T02:35:23;52.05;;;19.40;;
67278;SDS011;54193;53.746;10.058;2022-08-19T02:38:09;53.97;;;18.67;;
67278;SDS011;54193;53.746;10.058;2022-08-19T02:41:14;49.35;;;17.92;;
67278;SDS011;54193;53.746;10.058;2022-08-19T02:44:03;48.90;;;19.00;;
67278;SDS011;54193;53.746;10.058;2022-08-19T02:46:49;49.87;;;17.90;;
67278;SDS011;54193;53.746;10.058;2022-08-19T02:49:35;50.30;;;17.65;;
67278;SDS011;54193;53.746;10.058;2022-08-19T02:52:21;49.70;;;18.50;;
67278;SDS011;54193;53.746;10.058;2022-08-19T02:55:08;51.40;;;17.27;;
67278;SDS011;54193;53.746;10.058;2022-08-19T02:57:54;46.05;;;17.65;;
67278;SDS011;54193;53.746;10.058;2022-08-19T03:00:43;50.60;;;18.70;;
67278;SDS011;54193;53.746;10.058;2022-08-19T03:03:31;44.80;;;16.95;;
67278;SDS011;54193;53.746;10.058;2022-08-19T03:06:17;42.83;;;16.38;;
67278;SDS011;54193;53.746;10.058;2022-08-19T03:09:03;46.28;;;17.05;;
67278;SDS011;54193;53.746;10.058;2022-08-19T03:11:49;44.75;;;16.08;;
67278;SDS011;54193;53.746;10.058;2022-08-19T03:14:35;41.27;;;17.07;;
67278;SDS011;54193;53.746;10.058;2022-08-19T03:17:22;42.38;;;16.80;;
67278;SDS011;54193;53.746;10.058;2022-08-19T03:20:07;40.58;;;15.27;;
67278;SDS011;54193;53.746;10.058;2022-08-19T03:22:53;38.13;;;15.35;;
67278;SDS011;54193;53.746;10.058;2022-08-19T03:25:40;36.58;;;15.45;;
67278;SDS011;54193;53.746;10.058;2022-08-19T03:28:28;36.93;;;16.53;;
67278;SDS011;54193;53.746;10.058;2022-08-19T03:31:14;40.33;;;15.07;;
67278;SDS011;54193;53.746;10.058;2022-08-19T03:33:59;41.30;;;16.95;;
67278;SDS011;54193;53.746;10.058;2022-08-19T03:36:45;41.05;;;16.02;;
67278;SDS011;54193;53.746;10.058;2022-08-19T03:39:32;42.08;;;16.58;;
67278;SDS011;54193;53.746;10.058;2022-08-19T03:42:18;42.20;;;16.67;;
67278;SDS011;54193;53.746;10.058;2022-08-19T03:45:03;37.45;;;15.73;;
67278;SDS011;54193;53.746;10.058;2022-08-19T03:47:49;46.63;;;16.65;;
67278;SDS011;54193;53.746;10.058;2022-08-19T03:50:38;48.13;;;16.25;;
67278;SDS011;54193;53.746;10.058;2022-08-19T03:53:28;46.20;;;17.02;;
67278;SDS011;54193;53.746;10.058;2022-08-19T03:56:15;46.73;;;15.60;;
67278;SDS011;54193;53.746;10.058;2022-08-19T03:59:01;43.40;;;17.05;;
67278;SDS011;54193;53.746;10.058;2022-08-19T04:01:48;45.03;;;18.30;;
67278;SDS011;54193;53.746;10.058;2022-08-19T04:04:33;48.67;;;17.85;;
67278;SDS011;54193;53.746;10.058;2022-08-19T04:07:21;46.58;;;17.15;;
67278;SDS011;54193;53.746;10.058;2022-08-19T04:10:07;45.70;;;17.20;;
67278;SDS011;54193;53.746;10.058;2022-08-19T04:12:53;49.63;;;18.65;;
67278;SDS011;54193;53.746;10.058;2022-08-19T04:15:39;46.90;;;17.13;;
67278;SDS011;54193;53.746;10.058;2022-08-19T04:18:26;48.72;;;18.17;;
67278;SDS011;54193;53.746;10.058;2022-08-19T04:21:19;43.97;;;17.15;;
67278;SDS011;54193;53.746;10.058;2022-08-19T04:24:09;46.77;;;17.17;;
67278;SDS011;54193;53.746;10.058;2022-08-19T04:26:55;48.67;;;17.55;;
67278;SDS011;54193;53.746;10.058;2022-08-19T04:29:41;44.33;;;17.58;;
67278;SDS011;54193;53.746;10.058;2022-08-19T04:32:27;51.00;;;18.17;;
67278;SDS011;54193;53.746;10.058;2022-08-19T04:35:12;42.88;;;17.70;;
67278;SDS011;54193;53.746;10.058;2022-08-19T04:37:58;46.53;;;18.07;;
67278;SDS011;54193;53.746;10.058;2022-08-19T04:40:44;48.50;;;18.30;;
67278;SDS011;54193;53.746;10.058;2022-08-19T04:43:50;44.17;;;17.60;;
67278;SDS011;54193;53.746;10.058;2022-08-19T04:46:36;46.50;;;18.48;;
67278;SDS011;54193;53.746;10.058;2022-08-19T04:49:22;43.85;;;17.45;;
67278;SDS011;54193;53.746;10.058;2022-08-19T04:52:09;48.30;;;18.93;;
67278;SDS011;54193;53.746;10.058;2022-08-19T04:54:54;46.03;;;17.88;;
67278;SDS011;54193;53.746;10.058;2022-08-19T04:57:40;51.72;;;18.45;;
67278;SDS011;54193;53.746;10.058;2022-08-19T05:00:26;48.47;;;18.17;;
67278;SDS011;54193;53.746;10.058;2022-08-19T05:03:12;46.33;;;18.05;;
67278;SDS011;54193;53.746;10.058;2022-08-19T05:06:03;50.27;;;19.27;;
67278;SDS011;54193;53.746;10.058;2022-08-19T05:08:52;47.03;;;18.23;;
67278;SDS011;54193;53.746;10.058;2022-08-19T05:11:38;48.75;;;18.17;;
67278;SDS011;54193;53.746;10.058;2022-08-19T05:14:24;43.45;;;17.98;;
67278;SDS011;54193;53.746;10.058;2022-08-19T05:17:09;43.00;;;17.13;;
67278;SDS011;54193;53.746;10.058;2022-08-19T05:19:55;47.40;;;18.27;;
67278;SDS011;54193;53.746;10.058;2022-08-19T05:23:00;48.28;;;18.05;;
67278;SDS011;54193;53.746;10.058;2022-08-19T05:25:46;47.63;;;17.85;;
67278;SDS011;54193;53.746;10.058;2022-08-19T05:28:32;43.15;;;18.05;;
67278;SDS011;54193;53.746;10.058;2022-08-19T05:31:18;46.30;;;18.20;;
67278;SDS011;54193;53.746;10.058;2022-08-19T05:34:04;45.83;;;17.77;;
67278;SDS011;54193;53.746;10.058;2022-08-19T05:36:56;51.33;;;18.15;;
67278;SDS011;54193;53.746;10.058;2022-08-19T05:39:44;48.00;;;17.73;;
67278;SDS011;54193;53.746;10.058;2022-08-19T05:42:30;43.13;;;16.45;;
67278;SDS011;54193;53.746;10.058;2022-08-19T05:45:16;44.85;;;17.67;;
67278;SDS011;54193;53.746;10.058;2022-08-19T05:48:01;51.37;;;19.63;;
67278;SDS011;54193;53.746;10.058;2022-08-19T05:50:47;47.28;;;19.67;;
67278;SDS011;54193;53.746;10.058;2022-08-19T05:53:35;54.88;;;19.17;;
67278;SDS011;54193;53.746;10.058;2022-08-19T05:56:21;55.25;;;19.40;;
67278;SDS011;54193;53.746;10.058;2022-08-19T05:59:07;48.80;;;19.40;;
67278;SDS011;54193;53.746;10.058;2022-08-19T06:01:56;52.77;;;18.47;;
67278;SDS011;54193;53.746;10.058;2022-08-19T06:04:42;45.40;;;17.15;;
67278;SDS011;54193;53.746;10.058;2022-08-19T06:07:28;53.80;;;19.05;;
67278;SDS011;54193;53.746;10.058;2022-08-19T06:10:14;54.75;;;21.58;;
67278;SDS011;54193;53.746;10.058;2022-08-19T06:12:59;54.35;;;18.88;;
67278;SDS011;54193;53.746;10.058;2022-08-19T06:15:45;46.80;;;17.23;;
67278;SDS011;54193;53.746;10.058;2022-08-19T06:18:31;49.88;;;18.20;;
67278;SDS011;54193;53.746;10.058;2022-08-19T06:21:25;50.88;;;17.65;;
67278;SDS011;54193;53.746;10.058;2022-08-19T06:24:14;55.47;;;19.50;;
67278;SDS011;54193;53.746;10.058;2022-08-19T06:27:02;48.80;;;17.65;;
67278;SDS011;54193;53.746;10.058;2022-08-19T06:29:50;49.10;;;17.60;;
67278;SDS011;54193;53.746;10.058;2022-08-19T06:32:36;54.35;;;18.60;;
67278;SDS011;54193;53.746;10.058;2022-08-19T06:35:23;54.40;;;19.92;;
67278;SDS011;54193;53.746;10.058;2022-08-19T06:38:08;47.70;;;18.88;;
67278;SDS011;54193;53.746;10.058;2022-08-19T06:41:01;50.97;;;20.02;;
67278;SDS011;54193;53.746;10.058;2022-08-19T06:43:49;53.90;;;19.90;;
67278;SDS011;54193;53.746;10.058;2022-08-19T06:46:35;53.20;;;19.10;;
67278;SDS011;54193;53.746;10.058;2022-08-19T06:49:22;51.55;;;18.35;;
67278;SDS011;54193;53.746;10.058;2022-08-19T06:52:08;47.05;;;17.55;;
67278;SDS011;54193;53.746;10.058;2022-08-19T06:54:57;44.75;;;18.02;;
67278;SDS011;54193;53.746;10.058;2022-08-19T06:57:43;46.40;;;18.57;;
67278;SDS011;54193;53.746;10.058;2022-08-19T07:00:30;45.38;;;17.40;;
67278;SDS011;54193;53.746;10.058;2022-08-19T07:03:16;47.60;;;18.75;;
67278;SDS011;54193;53.746;10.058;2022-08-19T07:06:07;39.40;;;17.25;;
67278;SDS011;54193;53.746;10.058;2022-08-19T07:08:55;39.58;;;16.38;;
67278;SDS011;54193;53.746;10.058;2022-08-19T07:11:51;43.80;;;16.10;;
67278;SDS011;54193;53.746;10.058;2022-08-19T07:14:38;40.10;;;15.85;;
67278;SDS011;54193;53.746;10.058;2022-08-19T07:17:24;43.10;;;17.48;;
67278;SDS011;54193;53.746;10.058;2022-08-19T07:20:10;38.60;;;16.17;;
67278;SDS011;54193;53.746;10.058;2022-08-19T07:22:56;41.63;;;15.93;;
67278;SDS011;54193;53.746;10.058;2022-08-19T07:25:42;34.87;;;14.93;;
67278;SDS011;54193;53.746;10.058;2022-08-19T07:28:28;38.35;;;16.08;;
67278;SDS011;54193;53.746;10.058;2022-08-19T07:31:15;45.92;;;17.17;;
67278;SDS011;54193;53.746;10.058;2022-08-19T07:34:07;45.15;;;16.42;;
67278;SDS011;54193;53.746;10.058;2022-08-19T07:36:54;41.88;;;17.25;;
67278;SDS011;54193;53.746;10.058;2022-08-19T07:39:40;42.57;;;16.93;;
67278;SDS011;54193;53.746;10.058;2022-08-19T07:42:26;40.45;;;16.38;;
67278;SDS011;54193;53.746;10.058;2022-08-19T07:45:14;40.83;;;16.85;;
67278;SDS011;54193;53.746;10.058;2022-08-19T07:48:01;41.95;;;17.40;;
67278;SDS011;54193;53.746;10.058;2022-08-19T07:50:46;42.47;;;16.02;;
67278;SDS011;54193;53.746;10.058;2022-08-19T07:53:34;39.80;;;16.03;;
67278;SDS011;54193;53.746;10.058;2022-08-19T07:56:21;39.13;;;15.70;;
67278;SDS011;54193;53.746;10.058;2022-08-19T07:59:07;36.83;;;16.02;;
67278;SDS011;54193;53.746;10.058;2022-08-19T08:01:55;36.72;;;15.35;;
67278;SDS011;54193;53.746;10.058;2022-08-19T08:04:42;39.83;;;15.40;;
67278;SDS011;54193;53.746;10.058;2022-08-19T08:08:03;40.07;;;16.33;;
67278;SDS011;54193;53.746;10.058;2022-08-19T08:11:07;38.97;;;16.23;;
67278;SDS011;54193;53.746;10.058;2022-08-19T08:13:53;37.85;;;15.25;;
67278;SDS011;54193;53.746;10.058;2022-08-19T08:16:39;42.22;;;16.30;;
67278;SDS011;54193;53.746;10.058;2022-08-19T08:19:25;37.53;;;15.60;;
67278;SDS011;54193;53.746;10.058;2022-08-19T08:22:14;35.93;;;15.47;;
67278;SDS011;54193;53.746;10.058;2022-08-19T08:25:22;42.83;;;16.73;;
67278;SDS011;54193;53.746;10.058;2022-08-19T08:28:08;42.85;;;17.65;;
67278;SDS011;54193;53.746;10.058;2022-08-19T08:30:56;43.22;;;17.10;;
67278;SDS011;54193;53.746;10.058;2022-08-19T08:33:43;40.22;;;17.05;;
67278;SDS011;54193;53.746;10.058;2022-08-19T08:36:28;46.23;;;16.37;;
67278;SDS011;54193;53.746;10.058;2022-08-19T08:39:19;42.28;;;18.33;;
67278;SDS011;54193;53.746;10.058;2022-08-19T08:42:28;48.80;;;20.45;;
67278;SDS011;54193;53.746;10.058;2022-08-19T08:45:17;43.15;;;16.98;;
67278;SDS011;54193;53.746;10.058;2022-08-19T08:48:15;40.85;;;17.13;;
67278;SDS011;54193;53.746;10.058;2022-08-19T08:51:09;40.37;;;16.63;;
67278;SDS011;54193;53.746;10.058;2022-08-19T08:53:59;40.05;;;16.98;;
67278;SDS011;54193;53.746;10.058;2022-08-19T08:56:46;38.58;;;16.05;;
67278;SDS011;54193;53.746;10.058;2022-08-19T08:59:36;41.22;;;17.80;;
67278;SDS011;54193;53.746;10.058;2022-08-19T09:02:25;44.92;;;18.20;;
67278;SDS011;54193;53.746;10.058;2022-08-19T09:05:11;35.67;;;16.10;;
67278;SDS011;54193;53.746;10.058;2022-08-19T09:08:00;38.80;;;17.55;;
67278;SDS011;54193;53.746;10.058;2022-08-19T09:10:49;39.67;;;17.00;;
67278;SDS011;54193;53.746;10.058;2022-08-19T09:16:52;34.80;;;16.55;;
67278;SDS011;54193;53.746;10.058;2022-08-19T09:19:53;36.43;;;17.13;;
67278;SDS011;54193;53.746;10.058;2022-08-19T09:22:42;39.35;;;17.15;;
67278;SDS011;54193;53.746;10.058;2022-08-19T09:25:31;34.00;;;16.75;;
67278;SDS011;54193;53.746;10.058;2022-08-19T09:28:19;35.47;;;16.83;;
67278;SDS011;54193;53.746;10.058;2022-08-19T09:31:05;36.63;;;16.90;;
67278;SDS011;54193;53.746;10.058;2022-08-19T09:33:51;34.87;;;16.50;;
67278;SDS011;54193;53.746;10.058;2022-08-19T09:36:37;33.67;;;16.73;;
67278;SDS011;54193;53.746;10.058;2022-08-19T09:39:24;36.33;;;16.45;;
67278;SDS011;54193;53.746;10.058;2022-08-19T09:42:09;33.95;;;17.48;;
67278;SDS011;54193;53.746;10.058;2022-08-19T09:44:57;34.00;;;16.83;;
67278;SDS011;54193;53.746;10.058;2022-08-19T09:47:43;34.33;;;17.47;;
67278;SDS011;54193;53.746;10.058;2022-08-19T09:50:30;34.20;;;16.88;;
67278;SDS011;54193;53.746;10.058;2022-08-19T09:53:19;37.08;;;16.60;;
67278;SDS011;54193;53.746;10.058;2022-08-19T09:56:07;35.95;;;17.83;;
67278;SDS011;54193;53.746;10.058;2022-08-19T09:58:53;33.40;;;16.48;;
67278;SDS011;54193;53.746;10.058;2022-08-19T10:01:39;30.90;;;15.50;;
67278;SDS011;54193;53.746;10.058;2022-08-19T10:04:24;33.90;;;16.35;;
67278;SDS011;54193;53.746;10.058;2022-08-19T10:07:30;32.42;;;16.80;;
67278;SDS011;54193;53.746;10.058;2022-08-19T10:10:16;31.23;;;15.77;;
67278;SDS011;54193;53.746;10.058;2022-08-19T10:13:01;32.78;;;16.75;;
67278;SDS011;54193;53.746;10.058;2022-08-19T10:15:47;33.30;;;16.00;;
67278;SDS011;54193;53.746;10.058;2022-08-19T10:18:35;29.48;;;15.93;;
67278;SDS011;54193;53.746;10.058;2022-08-19T10:21:26;34.33;;;16.13;;
67278;SDS011;54193;53.746;10.058;2022-08-19T10:24:14;29.20;;;14.73;;
67278;SDS011;54193;53.746;10.058;2022-08-19T10:27:00;30.15;;;15.75;;
67278;SDS011;54193;53.746;10.058;2022-08-19T10:29:48;30.63;;;15.80;;
67278;SDS011;54193;53.746;10.058;2022-08-19T10:32:34;33.58;;;17.13;;
67278;SDS011;54193;53.746;10.058;2022-08-19T10:35:20;33.05;;;15.98;;
67278;SDS011;54193;53.746;10.058;2022-08-19T10:38:05;35.17;;;16.85;;
67278;SDS011;54193;53.746;10.058;2022-08-19T10:40:51;31.30;;;15.32;;
67278;SDS011;54193;53.746;10.058;2022-08-19T10:43:38;29.65;;;15.95;;
67278;SDS011;54193;53.746;10.058;2022-08-19T10:46:26;30.90;;;15.60;;
67278;SDS011;54193;53.746;10.058;2022-08-19T10:49:13;30.03;;;15.03;;
67278;SDS011;54193;53.746;10.058;2022-08-19T10:51:58;29.45;;;14.95;;
67278;SDS011;54193;53.746;10.058;2022-08-19T10:55:03;31.70;;;15.07;;
67278;SDS011;54193;53.746;10.058;2022-08-19T10:58:10;29.40;;;15.23;;
67278;SDS011;54193;53.746;10.058;2022-08-19T11:00:58;32.00;;;17.20;;
67278;SDS011;54193;53.746;10.058;2022-08-19T11:03:44;29.40;;;15.38;;
67278;SDS011;54193;53.746;10.058;2022-08-19T11:06:33;28.38;;;14.88;;
67278;SDS011;54193;53.746;10.058;2022-08-19T11:09:21;29.20;;;15.48;;
67278;SDS011;54193;53.746;10.058;2022-08-19T11:12:11;27.83;;;14.45;;
67278;SDS011;54193;53.746;10.058;2022-08-19T11:14:58;29.03;;;15.27;;
67278;SDS011;54193;53.746;10.058;2022-08-19T11:17:44;30.20;;;15.20;;
67278;SDS011;54193;53.746;10.058;2022-08-19T11:20:30;28.92;;;15.13;;
67278;SDS011;54193;53.746;10.058;2022-08-19T11:23:16;32.15;;;17.38;;
67278;SDS011;54193;53.746;10.058;2022-08-19T11:26:02;30.85;;;15.52;;
67278;SDS011;54193;53.746;10.058;2022-08-19T11:28:48;31.63;;;18.03;;
67278;SDS011;54193;53.746;10.058;2022-08-19T11:31:38;28.83;;;15.77;;
67278;SDS011;54193;53.746;10.058;2022-08-19T11:34:26;30.77;;;15.98;;
67278;SDS011;54193;53.746;10.058;2022-08-19T11:37:13;29.33;;;16.23;;
67278;SDS011;54193;53.746;10.058;2022-08-19T11:39:59;31.23;;;16.60;;
67278;SDS011;54193;53.746;10.058;2022-08-19T11:42:44;28.40;;;15.27;;
67278;SDS011;54193;53.746;10.058;2022-08-19T11:45:42;27.13;;;14.70;;
67278;SDS011;54193;53.746;10.058;2022-08-19T11:48:28;30.70;;;18.45;;
67278;SDS011;54193;53.746;10.058;2022-08-19T11:51:15;27.35;;;14.20;;
67278;SDS011;54193;53.746;10.058;2022-08-19T11:54:04;25.27;;;13.77;;
67278;SDS011;54193;53.746;10.058;2022-08-19T11:56:51;27.93;;;16.53;;
67278;SDS011;54193;53.746;10.058;2022-08-19T11:59:36;26.08;;;14.63;;
67278;SDS011;54193;53.746;10.058;2022-08-19T12:02:22;29.05;;;15.85;;
67278;SDS011;54193;53.746;10.058;2022-08-19T12:05:08;25.80;;;14.30;;
67278;SDS011;54193;53.746;10.058;2022-08-19T12:07:54;23.80;;;13.48;;
67278;SDS011;54193;53.746;10.058;2022-08-19T12:10:41;26.63;;;14.50;;
67278;SDS011;54193;53.746;10.058;2022-08-19T12:13:29;24.15;;;13.60;;
67278;SDS011;54193;53.746;10.058;2022-08-19T12:16:25;24.88;;;13.85;;
67278;SDS011;54193;53.746;10.058;2022-08-19T12:19:13;22.35;;;12.38;;
67278;SDS011;54193;53.746;10.058;2022-08-19T12:21:59;22.15;;;12.75;;
67278;SDS011;54193;53.746;10.058;2022-08-19T12:24:48;21.87;;;11.97;;
67278;SDS011;54193;53.746;10.058;2022-08-19T12:27:36;20.45;;;12.43;;
67278;SDS011;54193;53.746;10.058;2022-08-19T12:30:22;22.27;;;12.85;;
67278;SDS011;54193;53.746;10.058;2022-08-19T12:33:07;25.90;;;15.00;;
67278;SDS011;54193;53.746;10.058;2022-08-19T12:35:53;26.27;;;15.23;;
67278;SDS011;54193;53.746;10.058;2022-08-19T12:38:40;26.73;;;14.13;;
67278;SDS011;54193;53.746;10.058;2022-08-19T12:41:26;25.33;;;13.82;;
67278;SDS011;54193;53.746;10.058;2022-08-19T12:44:12;24.92;;;14.18;;
67278;SDS011;54193;53.746;10.058;2022-08-19T12:46:59;25.02;;;13.80;;
67278;SDS011;54193;53.746;10.058;2022-08-19T12:49:45;26.10;;;13.50;;
67278;SDS011;54193;53.746;10.058;2022-08-19T12:52:31;24.87;;;12.97;;
67278;SDS011;54193;53.746;10.058;2022-08-19T12:55:17;21.95;;;13.02;;
67278;SDS011;54193;53.746;10.058;2022-08-19T12:58:06;25.35;;;13.70;;
67278;SDS011;54193;53.746;10.058;2022-08-19T13:00:51;20.35;;;11.88;;
67278;SDS011;54193;53.746;10.058;2022-08-19T13:03:37;20.58;;;12.50;;
67278;SDS011;54193;53.746;10.058;2022-08-19T13:06:23;21.73;;;13.23;;
67278;SDS011;54193;53.746;10.058;2022-08-19T13:09:09;22.38;;;14.85;;
67278;SDS011;54193;53.746;10.058;2022-08-19T13:11:55;20.38;;;12.05;;
67278;SDS011;54193;53.746;10.058;2022-08-19T13:14:42;20.13;;;12.05;;
67278;SDS011;54193;53.746;10.058;2022-08-19T13:17:28;21.40;;;12.75;;
67278;SDS011;54193;53.746;10.058;2022-08-19T13:20:14;21.87;;;13.40;;
67278;SDS011;54193;53.746;10.058;2022-08-19T13:23:01;20.70;;;13.00;;
67278;SDS011;54193;53.746;10.058;2022-08-19T13:26:00;19.77;;;11.85;;
67278;SDS011;54193;53.746;10.058;2022-08-19T13:28:48;19.17;;;12.05;;
67278;SDS011;54193;53.746;10.058;2022-08-19T13:31:53;18.92;;;11.52;;
67278;SDS011;54193;53.746;10.058;2022-08-19T13:34:57;20.17;;;12.27;;
67278;SDS011;54193;53.746;10.058;2022-08-19T13:37:43;18.25;;;11.65;;
67278;SDS011;54193;53.746;10.058;2022-08-19T13:40:30;19.17;;;11.98;;
67278;SDS011;54193;53.746;10.058;2022-08-19T13:43:19;20.05;;;11.77;;
67278;SDS011;54193;53.746;10.058;2022-08-19T13:46:08;16.92;;;10.82;;
67278;SDS011;54193;53.746;10.058;2022-08-19T13:48:58;19.30;;;12.93;;
67278;SDS011;54193;53.746;10.058;2022-08-19T13:51:44;17.90;;;11.48;;
67278;SDS011;54193;53.746;10.058;2022-08-19T13:54:30;20.38;;;12.00;;
67278;SDS011;54193;53.746;10.058;2022-08-19T13:57:16;18.80;;;11.13;;
67278;SDS011;54193;53.746;10.058;2022-08-19T14:00:02;17.23;;;11.18;;
67278;SDS011;54193;53.746;10.058;2022-08-19T14:02:50;17.67;;;11.70;;
67278;SDS011;54193;53.746;10.058;2022-08-19T14:05:37;21.58;;;11.65;;
67278;SDS011;54193;53.746;10.058;2022-08-19T14:08:23;20.38;;;11.60;;
67278;SDS011;54193;53.746;10.058;2022-08-19T14:11:09;18.08;;;10.68;;
67278;SDS011;54193;53.746;10.058;2022-08-19T14:13:55;17.20;;;10.93;;
67278;SDS011;54193;53.746;10.058;2022-08-19T14:16:40;16.67;;;12.23;;
67278;SDS011;54193;53.746;10.058;2022-08-19T14:19:26;15.65;;;10.73;;
67278;SDS011;54193;53.746;10.058;2022-08-19T14:22:12;15.85;;;10.40;;
67278;SDS011;54193;53.746;10.058;2022-08-19T14:24:57;16.57;;;11.20;;
67278;SDS011;54193;53.746;10.058;2022-08-19T14:27:43;17.88;;;11.35;;
67278;SDS011;54193;53.746;10.058;2022-08-19T14:30:31;16.95;;;11.20;;
67278;SDS011;54193;53.746;10.058;2022-08-19T14:33:18;18.00;;;10.52;;
67278;SDS011;54193;53.746;10.058;2022-08-19T14:36:04;16.40;;;10.68;;
67278;SDS011;54193;53.746;10.058;2022-08-19T14:38:50;16.53;;;11.37;;
67278;SDS011;54193;53.746;10.058;2022-08-19T14:41:36;17.15;;;11.32;;
67278;SDS011;54193;53.746;10.058;2022-08-19T14:44:24;17.23;;;11.57;;
67278;SDS011;54193;53.746;10.058;2022-08-19T14:47:10;18.83;;;10.50;;
67278;SDS011;54193;53.746;10.058;2022-08-19T14:49:56;15.98;;;10.90;;
67278;SDS011;54193;53.746;10.058;2022-08-19T14:52:41;17.00;;;11.53;;
67278;SDS011;54193;53.746;10.058;2022-08-19T14:55:28;16.45;;;11.18;;
67278;SDS011;54193;53.746;10.058;2022-08-19T14:58:15;17.60;;;11.65;;
67278;SDS011;54193;53.746;10.058;2022-08-19T15:01:01;16.05;;;10.85;;
67278;SDS011;54193;53.746;10.058;2022-08-19T15:03:48;17.77;;;11.77;;
67278;SDS011;54193;53.746;10.058;2022-08-19T15:06:34;16.97;;;11.67;;
67278;SDS011;54193;53.746;10.058;2022-08-19T15:09:20;16.60;;;11.20;;
67278;SDS011;54193;53.746;10.058;2022-08-19T15:12:06;17.95;;;11.55;;
67278;SDS011;54193;53.746;10.058;2022-08-19T15:14:52;18.45;;;11.98;;
67278;SDS011;54193;53.746;10.058;2022-08-19T15:17:39;16.90;;;11.32;;
67278;SDS011;54193;53.746;10.058;2022-08-19T15:20:25;16.27;;;11.00;;
67278;SDS011;54193;53.746;10.058;2022-08-19T15:23:13;19.65;;;12.93;;
67278;SDS011;54193;53.746;10.058;2022-08-19T15:26:00;20.42;;;13.63;;
67278;SDS011;54193;53.746;10.058;2022-08-19T15:28:47;23.15;;;15.70;;
67278;SDS011;54193;53.746;10.058;2022-08-19T15:31:32;22.42;;;13.75;;
67278;SDS011;54193;53.746;10.058;2022-08-19T15:34:22;23.00;;;14.00;;
67278;SDS011;54193;53.746;10.058;2022-08-19T15:37:09;22.33;;;13.85;;
67278;SDS011;54193;53.746;10.058;2022-08-19T15:39:55;20.50;;;13.63;;
67278;SDS011;54193;53.746;10.058;2022-08-19T15:42:41;22.08;;;13.73;;
67278;SDS011;54193;53.746;10.058;2022-08-19T15:45:27;22.80;;;14.98;;
67278;SDS011;54193;53.746;10.058;2022-08-19T15:48:16;21.03;;;12.80;;
67278;SDS011;54193;53.746;10.058;2022-08-19T15:51:02;20.55;;;13.68;;
67278;SDS011;54193;53.746;10.058;2022-08-19T15:53:48;22.48;;;14.77;;
67278;SDS011;54193;53.746;10.058;2022-08-19T15:56:34;23.08;;;15.40;;
67278;SDS011;54193;53.746;10.058;2022-08-19T15:59:39;20.95;;;13.90;;
67278;SDS011;54193;53.746;10.058;2022-08-19T16:02:43;21.57;;;13.83;;
67278;SDS011;54193;53.746;10.058;2022-08-19T16:05:47;19.85;;;13.20;;
67278;SDS011;54193;53.746;10.058;2022-08-19T16:08:53;21.08;;;13.60;;
67278;SDS011;54193;53.746;10.058;2022-08-19T16:11:43;20.70;;;13.13;;